Time;durP1;ratioP1;P1;durP2;ratioP2;P2;SDS_P1;SDS_P2;PMS_P1;PMS_P2;Temp;Humidity;BMP_temperature;BMP_pressure;BME280_temperature;BME280_humidity;BME280_pressure;Samples;Min_cycle;Max_cycle;Signal;HPM_P1;HPM_P2
2022/08/09 00:01:03;;;;;;;1.02;0.70;;;15.00;99.90;;;;;;5052110;28;20033;-67
2022/08/09 00:03:28;;;;;;;2.15;0.60;;;15.00;99.90;;;;;;5048089;28;20050;-67
2022/08/09 00:05:54;;;;;;;0.93;0.68;;;15.00;99.90;;;;;;5015713;28;20034;-67
2022/08/09 00:08:20;;;;;;;1.33;0.70;;;15.00;99.90;;;;;;5048038;28;20366;-67
2022/08/09 00:10:46;;;;;;;1.23;0.90;;;14.90;99.90;;;;;;5051934;28;20033;-67
2022/08/09 00:13:11;;;;;;;2.50;1.50;;;14.90;99.90;;;;;;5050403;28;20053;-67
2022/08/09 00:15:37;;;;;;;3.42;1.88;;;14.80;99.90;;;;;;5050734;28;20040;-67
2022/08/09 00:18:03;;;;;;;4.22;2.70;;;14.80;99.90;;;;;;5037507;28;20033;-67
2022/08/09 00:20:28;;;;;;;3.67;1.80;;;14.70;99.90;;;;;;5032117;28;20040;-67
2022/08/09 00:22:54;;;;;;;2.45;1.00;;;14.60;99.90;;;;;;5043969;28;20048;-67
2022/08/09 00:25:20;;;;;;;2.00;0.60;;;14.70;99.90;;;;;;5035225;28;20134;-67
2022/08/09 00:27:45;;;;;;;3.28;0.70;;;14.70;99.90;;;;;;5033262;28;20037;-67
2022/08/09 00:30:12;;;;;;;0.75;0.40;;;14.70;99.90;;;;;;5055087;28;20555;-67
2022/08/09 00:32:38;;;;;;;0.40;0.40;;;14.70;99.90;;;;;;5038309;28;20498;-67
2022/08/09 00:35:04;;;;;;;0.63;0.40;;;14.70;99.90;;;;;;5072041;28;20048;-67
2022/08/09 00:37:30;;;;;;;2.88;0.70;;;14.70;99.90;;;;;;5021257;28;20048;-67
2022/08/09 00:39:56;;;;;;;1.45;0.80;;;14.60;99.90;;;;;;5021925;28;20386;-67
2022/08/09 00:42:21;;;;;;;2.53;1.00;;;14.50;99.90;;;;;;5035067;28;20059;-67
2022/08/09 00:44:47;;;;;;;1.45;0.70;;;14.30;99.90;;;;;;5057363;28;20531;-67
2022/08/09 00:47:13;;;;;;;0.73;0.63;;;14.30;99.90;;;;;;5054606;28;20040;-67
2022/08/09 00:49:39;;;;;;;0.98;0.60;;;14.30;99.90;;;;;;5047403;28;20436;-67
2022/08/09 00:52:05;;;;;;;0.73;0.50;;;14.40;99.90;;;;;;5058229;28;20033;-67
2022/08/09 00:54:31;;;;;;;0.20;0.20;;;14.40;99.90;;;;;;5042724;28;20086;-67
2022/08/09 00:56:57;;;;;;;1.08;0.20;;;14.40;99.90;;;;;;5021681;28;20513;-67
2022/08/09 00:59:22;;;;;;;0.75;0.40;;;14.40;99.90;;;;;;5035682;28;20109;-67
2022/08/09 01:01:50;;;;;;;0.50;0.50;;;14.40;99.90;;;;;;5050987;28;20056;-67
2022/08/09 01:04:32;;;;;;;0.50;0.50;;;14.30;99.90;;;;;;5072938;28;20068;-67
2022/08/09 01:07:13;;;;;;;0.98;0.60;;;14.30;99.90;;;;;;5055305;28;20044;-67
2022/08/09 01:09:59;;;;;;;0.63;0.60;;;14.20;99.90;;;;;;5058359;28;20367;-67
2022/08/09 01:12:45;;;;;;;0.50;0.50;;;14.20;99.90;;;;;;5043987;28;20087;-67
2022/08/09 01:15:20;;;;;;;0.68;0.60;;;14.20;99.90;;;;;;5053175;28;20056;-67
2022/08/09 01:18:06;;;;;;;0.65;0.60;;;14.10;99.90;;;;;;5043740;28;20124;-67
2022/08/09 01:20:51;;;;;;;0.80;0.80;;;14.10;99.90;;;;;;5056875;28;20560;-67
2022/08/09 01:23:52;;;;;;;1.08;0.73;;;14.00;99.90;;;;;;5049344;28;20398;-66
2022/08/09 01:26:41;;;;;;;0.85;0.82;;;13.90;99.90;;;;;;5057113;28;20389;-67
2022/08/09 01:29:11;;;;;;;1.52;1.00;;;13.80;99.90;;;;;;5054381;28;20378;-67
2022/08/09 01:31:37;;;;;;;2.90;0.90;;;13.60;99.90;;;;;;5057837;28;20116;-67
2022/08/09 01:34:06;;;;;;;0.82;0.70;;;13.60;99.90;;;;;;5055667;28;20040;-67
2022/08/09 01:36:33;;;;;;;1.20;0.80;;;13.60;99.90;;;;;;5054578;28;20048;-67
2022/08/09 01:39:00;;;;;;;1.33;0.80;;;13.70;99.90;;;;;;5046690;28;20120;-67
2022/08/09 01:41:30;;;;;;;2.42;0.95;;;13.70;99.90;;;;;;5057237;28;20048;-67
2022/08/09 01:43:59;;;;;;;1.33;0.90;;;13.70;99.90;;;;;;5033070;28;20037;-67
2022/08/09 01:46:30;;;;;;;2.22;0.80;;;13.70;99.90;;;;;;5031471;28;20382;-67
2022/08/09 01:49:02;;;;;;;2.33;1.10;;;13.70;99.90;;;;;;5037807;28;20124;-67
2022/08/09 01:51:29;;;;;;;1.83;0.90;;;13.60;99.90;;;;;;5048969;28;20051;-67
2022/08/09 01:53:57;;;;;;;1.60;0.90;;;13.40;99.90;;;;;;5053491;28;20056;-66
2022/08/09 01:56:25;;;;;;;2.50;1.40;;;13.30;99.90;;;;;;5036575;28;20124;-67
2022/08/09 01:58:52;;;;;;;2.22;1.38;;;13.30;99.90;;;;;;5045972;28;20045;-67
2022/08/09 02:01:19;;;;;;;2.80;1.60;;;13.20;99.90;;;;;;5052342;28;20041;-67
2022/08/09 02:03:47;;;;;;;4.30;1.70;;;13.20;99.90;;;;;;5027754;28;20045;-67
2022/08/09 02:06:13;;;;;;;3.47;1.88;;;13.20;99.90;;;;;;5043050;28;20033;-68
2022/08/09 02:08:43;;;;;;;3.20;1.85;;;13.20;99.90;;;;;;5052193;28;20043;-67
2022/08/09 02:11:11;;;;;;;6.13;2.40;;;13.10;99.90;;;;;;5036406;28;20401;-67
2022/08/09 02:13:37;;;;;;;1.80;1.00;;;13.20;99.90;;;;;;5047669;28;20065;-67
2022/08/09 02:16:06;;;;;;;1.73;0.90;;;13.20;99.90;;;;;;5051743;28;20041;-67
2022/08/09 02:18:34;;;;;;;1.38;0.77;;;13.30;99.90;;;;;;5035522;28;20053;-67
2022/08/09 02:21:10;;;;;;;0.80;0.70;;;13.30;99.90;;;;;;5059564;28;20072;-67
2022/08/09 02:23:50;;;;;;;1.88;0.80;;;13.30;99.90;;;;;;5034421;28;20041;-67
2022/08/09 02:26:18;;;;;;;2.15;0.80;;;13.30;99.90;;;;;;5042151;28;20029;-67
2022/08/09 02:28:48;;;;;;;1.02;0.80;;;13.30;99.90;;;;;;5052404;28;20045;-67
2022/08/09 02:31:26;;;;;;;0.70;0.52;;;13.30;99.90;;;;;;5050488;28;20402;-67
2022/08/09 02:33:55;;;;;;;0.45;0.45;;;13.30;99.90;;;;;;5033051;28;20041;-67
2022/08/09 02:36:30;;;;;;;1.17;0.68;;;13.30;99.90;;;;;;5033712;28;20095;-67
2022/08/09 02:38:59;;;;;;;1.40;0.80;;;13.30;99.90;;;;;;5033389;28;20060;-67
2022/08/09 02:41:39;;;;;;;0.85;0.73;;;13.30;99.90;;;;;;5053320;28;20041;-67
2022/08/09 02:44:10;;;;;;;1.85;0.80;;;13.30;99.90;;;;;;5052061;28;20375;-67
2022/08/09 02:46:38;;;;;;;0.77;0.70;;;13.30;99.90;;;;;;5032024;28;20398;-67
2022/08/09 02:49:09;;;;;;;0.77;0.65;;;13.20;99.90;;;;;;5043676;28;20600;-67
2022/08/09 02:51:37;;;;;;;1.02;0.90;;;13.20;99.90;;;;;;5040597;28;20107;-66
2022/08/09 02:54:05;;;;;;;1.63;0.95;;;13.20;99.90;;;;;;5073478;28;20045;-67
2022/08/09 02:56:32;;;;;;;1.02;0.70;;;13.20;99.90;;;;;;5052396;28;20053;-67
2022/08/09 02:59:03;;;;;;;1.85;0.82;;;13.20;99.90;;;;;;5049869;28;20041;-67
2022/08/09 03:01:30;;;;;;;0.88;0.80;;;13.10;99.90;;;;;;5048269;28;20060;-67
2022/08/09 03:03:57;;;;;;;1.13;0.70;;;13.10;99.90;;;;;;5031807;28;20042;-67
2022/08/09 03:06:25;;;;;;;1.45;0.70;;;13.00;99.90;;;;;;5033114;28;20509;-67
2022/08/09 03:08:52;;;;;;;2.15;1.13;;;12.80;99.90;;;;;;5032833;28;20042;-67
2022/08/09 03:11:21;;;;;;;3.10;1.23;;;12.80;99.90;;;;;;5061858;28;20127;-66
2022/08/09 03:13:48;;;;;;;1.33;0.70;;;12.80;99.90;;;;;;5048626;28;20044;-66
2022/08/09 03:16:18;;;;;;;0.80;0.60;;;12.80;99.90;;;;;;5047193;28;20049;-67
2022/08/09 03:18:45;;;;;;;1.65;0.70;;;12.80;99.90;;;;;;5039272;28;20493;-67
2022/08/09 03:21:11;;;;;;;2.25;0.80;;;12.80;99.90;;;;;;5044038;28;20041;-66
2022/08/09 03:23:37;;;;;;;1.15;0.70;;;12.80;99.90;;;;;;5048348;28;20083;-67
2022/08/09 03:26:03;;;;;;;0.82;0.65;;;12.80;99.90;;;;;;5033906;28;20044;-67
2022/08/09 03:28:29;;;;;;;1.77;0.88;;;12.70;99.90;;;;;;5066113;28;20481;-67
2022/08/09 03:30:56;;;;;;;0.65;0.65;;;12.70;99.90;;;;;;5025920;28;20121;-66
2022/08/09 03:33:23;;;;;;;1.45;0.88;;;12.70;99.90;;;;;;5049296;28;20033;-67
2022/08/09 03:35:51;;;;;;;1.20;1.08;;;12.70;99.90;;;;;;5075742;28;20139;-67
2022/08/09 03:38:17;;;;;;;1.70;1.02;;;12.70;99.90;;;;;;5038986;28;20041;-67
2022/08/09 03:40:42;;;;;;;2.33;1.15;;;12.60;99.90;;;;;;5068550;28;20044;-66
2022/08/09 03:43:08;;;;;;;2.45;1.27;;;12.50;99.90;;;;;;5050669;28;20041;-67
2022/08/09 03:45:35;;;;;;;3.35;1.15;;;12.60;99.90;;;;;;5025703;28;20041;-67
2022/08/09 03:48:01;;;;;;;3.72;1.00;;;12.50;99.90;;;;;;5050659;28;20033;-66
2022/08/09 03:50:28;;;;;;;2.35;1.00;;;12.60;99.90;;;;;;5037434;28;20071;-67
2022/08/09 03:52:56;;;;;;;1.98;0.95;;;12.50;99.90;;;;;;5026353;28;20037;-67
2022/08/09 03:55:22;;;;;;;3.15;1.35;;;12.50;99.90;;;;;;5043995;28;20409;-66
2022/08/09 03:57:49;;;;;;;2.60;1.42;;;12.50;99.90;;;;;;5039965;28;20045;-67
2022/08/09 04:00:16;;;;;;;2.28;1.30;;;12.50;99.90;;;;;;5049196;28;20056;-67
2022/08/09 04:02:42;;;;;;;3.65;1.60;;;12.40;99.90;;;;;;5031713;28;20056;-67
2022/08/09 04:05:09;;;;;;;3.35;1.33;;;12.30;99.90;;;;;;5032023;28;20049;-67
2022/08/09 04:07:35;;;;;;;2.40;1.30;;;12.30;99.90;;;;;;5042763;28;20072;-66
2022/08/09 04:10:01;;;;;;;2.45;1.20;;;12.30;99.90;;;;;;5026194;28;20386;-67
2022/08/09 04:12:50;;;;;;;3.47;1.20;;;12.30;99.90;;;;;;5036422;28;20045;-67
2022/08/09 04:15:17;;;;;;;3.47;1.48;;;12.30;99.90;;;;;;5035041;28;20048;-66
2022/08/09 04:17:43;;;;;;;2.53;1.40;;;12.30;99.90;;;;;;5020544;28;20060;-67
2022/08/09 04:20:11;;;;;;;2.75;1.33;;;12.30;99.90;;;;;;5040286;28;20464;-67
2022/08/09 04:22:37;;;;;;;2.40;1.25;;;12.20;99.90;;;;;;5027037;28;20084;-67
2022/08/09 04:25:03;;;;;;;2.53;1.30;;;12.10;99.90;;;;;;5050779;28;20068;-67
2022/08/09 04:27:29;;;;;;;2.17;1.40;;;12.00;99.90;;;;;;5048000;28;20467;-66
2022/08/09 04:29:55;;;;;;;3.80;1.55;;;12.00;99.90;;;;;;5040707;28;20064;-67
2022/08/09 04:32:21;;;;;;;1.20;1.00;;;12.00;99.90;;;;;;5031166;28;20081;-66
2022/08/09 04:34:47;;;;;;;2.58;1.08;;;12.10;99.90;;;;;;5023691;28;20072;-67
2022/08/09 04:37:12;;;;;;;1.65;1.05;;;12.10;99.90;;;;;;5026203;28;20039;-66
2022/08/09 04:39:38;;;;;;;2.05;1.20;;;12.10;99.90;;;;;;5044128;28;20417;-67
2022/08/09 04:42:04;;;;;;;2.03;1.20;;;12.20;99.90;;;;;;5049627;28;20041;-67
2022/08/09 04:44:30;;;;;;;2.88;1.60;;;12.10;99.90;;;;;;5044581;28;20045;-67
2022/08/09 04:46:56;;;;;;;3.90;1.50;;;12.10;99.90;;;;;;5056506;28;20040;-67
2022/08/09 04:49:22;;;;;;;4.10;1.40;;;12.00;99.90;;;;;;5036119;28;20596;-66
2022/08/09 04:51:47;;;;;;;2.92;1.63;;;12.00;99.90;;;;;;5037410;28;20104;-67
2022/08/09 04:54:13;;;;;;;4.00;1.63;;;12.00;99.90;;;;;;5053244;28;20460;-67
2022/08/09 04:56:38;;;;;;;3.85;1.60;;;11.90;99.90;;;;;;5048739;28;20045;-67
2022/08/09 04:59:04;;;;;;;4.05;1.83;;;12.00;99.90;;;;;;5021816;28;20045;-67
2022/08/09 05:01:30;;;;;;;4.15;1.90;;;12.10;99.90;;;;;;5028866;28;20064;-67
2022/08/09 05:03:55;;;;;;;4.40;2.00;;;12.10;99.90;;;;;;5014534;28;20034;-67
2022/08/09 05:06:21;;;;;;;4.57;2.20;;;12.10;99.90;;;;;;5043989;28;20041;-67
2022/08/09 05:08:46;;;;;;;6.07;2.08;;;12.10;99.90;;;;;;5050757;28;20048;-67
2022/08/09 05:11:12;;;;;;;4.32;2.10;;;12.20;99.90;;;;;;5050355;28;20180;-67
2022/08/09 05:13:39;;;;;;;4.43;2.05;;;12.20;99.90;;;;;;5046519;28;20045;-67
2022/08/09 05:16:06;;;;;;;4.88;2.47;;;12.20;99.90;;;;;;5034323;28;20124;-67
2022/08/09 05:18:32;;;;;;;4.72;2.10;;;12.20;99.90;;;;;;5050086;28;20116;-67
2022/08/09 05:21:01;;;;;;;4.82;2.28;;;12.30;99.90;;;;;;5063547;28;20078;-67
2022/08/09 05:23:27;;;;;;;6.18;2.78;;;12.30;99.90;;;;;;5035440;28;20029;-67
2022/08/09 05:25:52;;;;;;;5.55;2.40;;;12.30;99.90;;;;;;5050304;28;20099;-67
2022/08/09 05:28:19;;;;;;;5.88;2.80;;;12.30;99.90;;;;;;5051601;28;20036;-67
2022/08/09 05:30:45;;;;;;;6.43;3.30;;;12.40;99.90;;;;;;5036847;28;20045;-67
2022/08/09 05:33:11;;;;;;;6.40;2.67;;;12.50;99.90;;;;;;5042304;28;20128;-67
2022/08/09 05:35:37;;;;;;;5.35;2.45;;;12.50;99.90;;;;;;5053875;28;20037;-67
2022/08/09 05:38:03;;;;;;;5.65;2.60;;;12.50;99.90;;;;;;5052887;28;20382;-67
2022/08/09 05:40:28;;;;;;;5.63;2.78;;;12.60;99.90;;;;;;5049647;28;20481;-67
2022/08/09 05:42:55;;;;;;;5.63;2.67;;;12.60;99.90;;;;;;5039619;28;20095;-67
2022/08/09 05:45:20;;;;;;;6.10;2.80;;;12.70;99.90;;;;;;5031328;28;20509;-67
2022/08/09 05:47:46;;;;;;;6.43;2.92;;;12.70;99.90;;;;;;5053663;28;20035;-67
2022/08/09 05:50:12;;;;;;;5.75;2.90;;;12.80;99.90;;;;;;5032500;28;20103;-67
2022/08/09 05:52:38;;;;;;;6.07;2.72;;;12.90;99.90;;;;;;5051373;28;20049;-67
2022/08/09 05:55:05;;;;;;;8.55;4.40;;;13.00;99.90;;;;;;5061079;28;20041;-67
2022/08/09 05:57:30;;;;;;;6.93;3.80;;;13.10;99.90;;;;;;5065890;28;20502;-67
2022/08/09 05:59:56;;;;;;;8.13;3.72;;;13.30;99.90;;;;;;5061405;28;20041;-67
2022/08/09 06:02:21;;;;;;;7.85;4.72;;;13.30;99.90;;;;;;5063294;28;20079;-67
2022/08/09 06:04:47;;;;;;;13.60;4.43;;;13.50;99.90;;;;;;5043494;28;20042;-67
2022/08/09 06:07:12;;;;;;;7.80;4.15;;;13.60;99.90;;;;;;5031159;28;20029;-67
2022/08/09 06:09:38;;;;;;;9.52;4.82;;;13.80;99.90;;;;;;5052299;28;20037;-67
2022/08/09 06:12:04;;;;;;;10.32;5.82;;;14.00;99.90;;;;;;5042744;28;20406;-67
2022/08/09 06:14:29;;;;;;;8.98;5.45;;;14.20;99.90;;;;;;5047401;28;20053;-67
2022/08/09 06:16:56;;;;;;;10.75;6.90;;;14.40;99.90;;;;;;5033458;28;20052;-67
2022/08/09 06:19:22;;;;;;;10.15;5.70;;;14.70;99.90;;;;;;5056739;28;20120;-67
2022/08/09 06:21:47;;;;;;;10.88;5.43;;;14.80;99.90;;;;;;5029364;28;20041;-67
2022/08/09 06:24:13;;;;;;;10.98;6.35;;;15.00;99.90;;;;;;5038392;28;20041;-67
2022/08/09 06:26:40;;;;;;;10.40;7.20;;;15.20;99.90;;;;;;5044738;28;20045;-67
2022/08/09 06:29:07;;;;;;;9.70;5.63;;;15.40;99.90;;;;;;5053289;28;20041;-67
2022/08/09 06:31:34;;;;;;;9.23;5.05;;;15.50;99.90;;;;;;5057984;28;20102;-67
2022/08/09 06:34:00;;;;;;;9.88;6.18;;;15.70;99.90;;;;;;5039151;28;20385;-67
2022/08/09 06:36:26;;;;;;;11.75;5.85;;;15.80;99.90;;;;;;5049319;28;20032;-67
2022/08/09 06:38:52;;;;;;;11.70;7.20;;;16.10;99.90;;;;;;5029985;28;20037;-67
2022/08/09 06:41:17;;;;;;;12.32;5.97;;;16.20;99.90;;;;;;5049057;28;20052;-69
2022/08/09 06:43:43;;;;;;;10.75;6.07;;;16.40;99.90;;;;;;5062755;28;20033;-71
2022/08/09 06:46:09;;;;;;;12.45;6.10;;;16.50;99.90;;;;;;5052668;28;20041;-71
2022/08/09 06:48:34;;;;;;;13.60;6.68;;;16.70;99.90;;;;;;5035990;28;20040;-70
2022/08/09 06:51:00;;;;;;;10.10;5.72;;;16.80;99.90;;;;;;5062094;28;20063;-71
2022/08/09 06:53:27;;;;;;;8.60;5.20;;;16.90;99.90;;;;;;5033834;28;20061;-70
2022/08/09 06:55:52;;;;;;;11.07;5.30;;;17.00;99.90;;;;;;5049687;28;20044;-71
2022/08/09 06:58:18;;;;;;;9.00;4.88;;;17.20;99.90;;;;;;5044249;28;20021;-71
2022/08/09 07:00:44;;;;;;;9.52;5.20;;;17.30;99.90;;;;;;5044652;28;20505;-71
2022/08/09 07:03:09;;;;;;;9.18;4.40;;;17.40;99.90;;;;;;5049449;28;20041;-71
2022/08/09 07:05:35;;;;;;;9.40;4.03;;;17.50;99.90;;;;;;5051415;28;20072;-69
2022/08/09 07:08:01;;;;;;;7.90;3.88;;;17.60;99.90;;;;;;5048344;28;20057;-69
2022/08/09 07:10:26;;;;;;;8.70;4.30;;;17.60;99.90;;;;;;5025269;28;20065;-69
2022/08/09 07:12:52;;;;;;;8.60;4.03;;;17.70;99.90;;;;;;5034976;28;20246;-67
2022/08/09 07:15:17;;;;;;;7.85;3.80;;;17.80;99.90;;;;;;5042423;28;20049;-68
2022/08/09 07:17:43;;;;;;;8.50;3.65;;;17.80;99.90;;;;;;5041095;28;20041;-68
2022/08/09 07:20:09;;;;;;;8.50;4.07;;;17.90;99.90;;;;;;5052341;28;20410;-68
2022/08/09 07:22:35;;;;;;;9.95;4.45;;;18.00;99.90;;;;;;5050737;28;20045;-68
2022/08/09 07:25:02;;;;;;;9.35;3.92;;;18.10;99.90;;;;;;5045573;28;20044;-68
2022/08/09 07:27:28;;;;;;;7.35;3.60;;;18.10;99.90;;;;;;5035718;28;20068;-67
2022/08/09 07:29:54;;;;;;;7.85;2.90;;;18.20;99.90;;;;;;5058459;28;20126;-68
2022/08/09 07:32:20;;;;;;;7.22;2.90;;;18.30;99.90;;;;;;5033542;28;20044;-68
2022/08/09 07:34:46;;;;;;;5.10;2.70;;;18.40;99.90;;;;;;5034456;28;20106;-68
2022/08/09 07:37:12;;;;;;;5.68;2.40;;;18.50;99.90;;;;;;5018954;28;20034;-68
2022/08/09 07:39:38;;;;;;;5.47;2.10;;;18.60;99.90;;;;;;5042943;28;20052;-68
2022/08/09 07:42:04;;;;;;;4.28;1.90;;;18.60;99.90;;;;;;5034732;28;20604;-68
2022/08/09 07:44:29;;;;;;;4.28;1.90;;;18.70;99.90;;;;;;5028234;28;20045;-68
2022/08/09 07:46:55;;;;;;;5.78;1.85;;;18.70;99.90;;;;;;5049608;28;20117;-68
2022/08/09 07:49:21;;;;;;;5.68;2.00;;;18.70;99.90;;;;;;5043586;28;20076;-68
2022/08/09 07:51:46;;;;;;;6.55;2.05;;;18.90;99.90;;;;;;5040636;28;20033;-68
2022/08/09 07:54:13;;;;;;;4.72;2.00;;;18.90;99.90;;;;;;5051257;28;20103;-68
2022/08/09 07:56:38;;;;;;;4.75;1.45;;;19.00;99.90;;;;;;5049119;28;20067;-68
2022/08/09 07:59:06;;;;;;;4.38;2.10;;;19.10;99.90;;;;;;5050223;28;20045;-68
2022/08/09 08:01:32;;;;;;;5.00;2.10;;;19.20;99.90;;;;;;5048544;28;20072;-68
2022/08/09 08:03:57;;;;;;;3.55;1.85;;;19.10;99.90;;;;;;5050619;28;20128;-68
2022/08/09 08:06:23;;;;;;;4.15;2.03;;;19.30;99.90;;;;;;5049344;28;20120;-68
2022/08/09 08:08:49;;;;;;;5.97;1.95;;;19.30;99.90;;;;;;5015260;28;20068;-67
2022/08/09 08:11:15;;;;;;;4.22;1.70;;;19.50;99.90;;;;;;5023121;28;20454;-68
2022/08/09 08:13:41;;;;;;;6.78;1.70;;;19.60;99.90;;;;;;5049424;28;20075;-68
2022/08/09 08:16:07;;;;;;;3.13;1.30;;;19.80;99.90;;;;;;5037973;28;20034;-68
2022/08/09 08:18:32;;;;;;;3.00;1.23;;;19.90;99.90;;;;;;5042766;28;20034;-68
2022/08/09 08:20:58;;;;;;;5.88;1.40;;;20.00;99.90;;;;;;5047969;28;20470;-67
2022/08/09 08:23:24;;;;;;;3.80;1.10;;;20.10;99.90;;;;;;5049340;28;20063;-68
2022/08/09 08:25:50;;;;;;;3.10;1.25;;;20.20;99.90;;;;;;5049346;28;20648;-68
2022/08/09 08:28:16;;;;;;;2.53;1.30;;;20.30;99.90;;;;;;5064758;28;20037;-68
2022/08/09 08:30:43;;;;;;;7.40;1.20;;;20.40;99.90;;;;;;5076207;28;20033;-67
2022/08/09 08:33:09;;;;;;;3.67;1.38;;;20.30;99.90;;;;;;5046674;28;20033;-67
2022/08/09 08:35:35;;;;;;;1.70;1.20;;;20.20;99.90;;;;;;5060280;28;20044;-68
2022/08/09 08:38:00;;;;;;;4.80;1.33;;;20.10;99.90;;;;;;5036081;28;20049;-68
2022/08/09 08:40:26;;;;;;;3.50;1.40;;;20.00;99.90;;;;;;5029103;28;20057;-68
2022/08/09 08:42:52;;;;;;;4.35;1.45;;;20.00;99.90;;;;;;5041094;28;20041;-68
2022/08/09 08:45:28;;;;;;;2.95;1.30;;;20.00;99.90;;;;;;5043867;28;20040;-68
2022/08/09 08:47:54;;;;;;;3.63;1.90;;;19.80;99.90;;;;;;5040639;28;20045;-68
2022/08/09 08:50:20;;;;;;;4.43;1.30;;;19.80;99.90;;;;;;5055271;28;20051;-68
2022/08/09 08:52:47;;;;;;;2.42;1.30;;;19.70;99.90;;;;;;5050884;28;20055;-68
2022/08/09 08:55:14;;;;;;;2.17;1.10;;;19.70;99.90;;;;;;5031735;28;20047;-68
2022/08/09 08:57:40;;;;;;;2.50;1.00;;;19.70;99.90;;;;;;5045308;28;20073;-68
2022/08/09 09:00:08;;;;;;;4.22;1.48;;;19.70;99.90;;;;;;5023890;28;20622;-68
2022/08/09 09:02:36;;;;;;;3.83;1.30;;;19.90;99.90;;;;;;5034443;28;20045;-68
2022/08/09 09:05:02;;;;;;;2.97;1.40;;;20.00;99.90;;;;;;5041090;28;20069;-68
2022/08/09 09:07:29;;;;;;;3.90;1.40;;;20.20;99.90;;;;;;5041031;28;20107;-68
2022/08/09 09:09:57;;;;;;;2.10;1.20;;;20.20;99.90;;;;;;5032694;28;20099;-68
2022/08/09 09:12:28;;;;;;;3.95;1.30;;;20.30;99.90;;;;;;5060053;28;20036;-68
2022/08/09 09:14:57;;;;;;;1.98;1.05;;;20.40;99.90;;;;;;5062858;28;20100;-68
2022/08/09 09:17:23;;;;;;;2.95;1.30;;;20.60;99.90;;;;;;5050228;28;20044;-68
2022/08/09 09:19:49;;;;;;;3.13;1.13;;;20.70;99.90;;;;;;5051883;28;20045;-68
2022/08/09 09:22:20;;;;;;;1.00;0.85;;;20.80;99.90;;;;;;5071159;28;20047;-68
2022/08/09 09:24:51;;;;;;;1.60;0.90;;;21.00;99.90;;;;;;5047536;28;20049;-68
2022/08/09 09:27:24;;;;;;;2.60;1.10;;;21.20;99.90;;;;;;5069105;28;20064;-68
2022/08/09 09:29:51;;;;;;;1.85;0.93;;;21.20;99.90;;;;;;5042739;28;20405;-68
2022/08/09 09:32:25;;;;;;;1.42;1.02;;;21.30;99.90;;;;;;5049773;28;20033;-69
2022/08/09 09:35:04;;;;;;;3.17;1.02;;;21.40;99.90;;;;;;5049336;28;20091;-68
2022/08/09 09:37:30;;;;;;;3.28;0.90;;;21.40;99.90;;;;;;5050045;28;20052;-68
2022/08/09 09:39:55;;;;;;;1.90;0.85;;;21.50;99.90;;;;;;5037730;28;20505;-68
2022/08/09 09:42:24;;;;;;;1.67;0.80;;;21.50;99.90;;;;;;5028304;28;20033;-68
2022/08/09 09:44:55;;;;;;;0.80;0.80;;;21.70;99.90;;;;;;5038174;28;20041;-69
2022/08/09 09:47:21;;;;;;;1.38;0.80;;;21.70;99.90;;;;;;5046869;28;20030;-68
2022/08/09 09:49:54;;;;;;;1.73;1.17;;;21.80;99.90;;;;;;5045477;28;20045;-68
2022/08/09 09:52:19;;;;;;;1.30;0.80;;;21.80;99.90;;;;;;5037221;28;20076;-68
2022/08/09 09:54:46;;;;;;;2.40;1.00;;;22.00;99.90;;;;;;5059827;28;20045;-68
2022/08/09 09:57:24;;;;;;;2.28;0.90;;;22.10;99.90;;;;;;5028756;28;20042;-68
2022/08/09 09:59:51;;;;;;;3.05;0.88;;;22.20;99.90;;;;;;5044899;28;20497;-68
2022/08/09 10:02:17;;;;;;;2.42;0.90;;;22.30;99.90;;;;;;5053523;28;20557;-68
2022/08/09 10:04:44;;;;;;;1.55;0.90;;;22.40;99.90;;;;;;5041183;28;20037;-68
2022/08/09 10:07:21;;;;;;;3.28;1.00;;;22.50;99.90;;;;;;5033754;28;20437;-68
2022/08/09 10:09:49;;;;;;;1.83;0.95;;;22.40;99.90;;;;;;5050505;28;20043;-68
2022/08/09 10:12:29;;;;;;;1.15;0.90;;;22.20;99.90;;;;;;5037415;28;20091;-68
2022/08/09 10:15:05;;;;;;;5.53;1.02;;;22.10;99.90;;;;;;5051714;28;20107;-68
2022/08/09 10:17:33;;;;;;;1.65;0.90;;;22.10;99.90;;;;;;5032222;28;20409;-68
2022/08/09 10:20:01;;;;;;;1.42;0.95;;;22.20;99.90;;;;;;5064851;28;20044;-68
2022/08/09 10:22:37;;;;;;;1.88;0.90;;;22.20;99.90;;;;;;5054419;28;20037;-68
2022/08/09 10:25:07;;;;;;;3.00;1.00;;;22.30;99.90;;;;;;5020999;28;20095;-73
2022/08/09 10:27:34;;;;;;;1.70;0.70;;;22.30;99.90;;;;;;5032830;28;20045;-76
2022/08/09 10:30:05;;;;;;;1.88;1.00;;;22.30;99.90;;;;;;5049086;28;20094;-76
2022/08/09 10:32:32;;;;;;;2.47;0.90;;;22.20;99.90;;;;;;5049493;28;20037;-76
2022/08/09 10:34:59;;;;;;;2.05;0.82;;;22.10;99.90;;;;;;5052769;28;20458;-76
2022/08/09 10:37:25;;;;;;;1.58;0.70;;;22.30;99.90;;;;;;5021034;28;20042;-76
2022/08/09 10:39:54;;;;;;;3.15;0.93;;;22.40;99.90;;;;;;5034548;28;20080;-75
2022/08/09 10:42:21;;;;;;;2.75;1.23;;;22.60;99.90;;;;;;5049442;28;20060;-76
2022/08/09 10:45:00;;;;;;;2.97;1.20;;;22.60;99.90;;;;;;5043134;28;20044;-76
2022/08/09 10:47:38;;;;;;;2.05;1.20;;;22.70;99.90;;;;;;5069137;28;20532;-68
2022/08/09 10:50:22;;;;;;;2.00;1.10;;;22.70;99.90;;;;;;5049796;28;20041;-68
2022/08/09 10:53:10;;;;;;;2.25;1.20;;;22.80;99.90;;;;;;5034524;28;20048;-68
2022/08/09 10:55:36;;;;;;;1.42;1.02;;;22.80;99.90;;;;;;5056287;28;20047;-69
2022/08/09 10:58:02;;;;;;;1.67;1.00;;;22.80;99.90;;;;;;5038608;28;20042;-68
2022/08/09 11:00:28;;;;;;;1.77;0.93;;;22.90;99.90;;;;;;5049913;28;20040;-68
2022/08/09 11:02:54;;;;;;;2.72;0.95;;;23.10;99.90;;;;;;5049306;28;20087;-69
2022/08/09 11:05:21;;;;;;;2.75;1.20;;;23.30;99.90;;;;;;5029048;28;20095;-69
2022/08/09 11:07:47;;;;;;;5.55;1.30;;;23.10;99.90;;;;;;5048011;28;20044;-68
2022/08/09 11:10:13;;;;;;;3.05;1.20;;;22.90;99.90;;;;;;5041586;28;20115;-68
2022/08/09 11:12:39;;;;;;;3.03;1.20;;;23.10;99.90;;;;;;5047484;28;20497;-68
2022/08/09 11:15:24;;;;;;;5.35;1.20;;;23.20;99.90;;;;;;5079968;28;20048;-68
2022/08/09 11:17:54;;;;;;;2.05;1.00;;;23.30;99.90;;;;;;5056434;28;20506;-69
2022/08/09 11:20:43;;;;;;;2.67;1.10;;;23.50;99.90;;;;;;5019760;28;20087;-68
2022/08/09 11:23:09;;;;;;;5.82;1.13;;;23.40;99.90;;;;;;5045605;28;20067;-69
2022/08/09 11:25:36;;;;;;;2.63;1.15;;;23.40;99.90;;;;;;5031082;28;20042;-68
2022/08/09 11:28:28;;;;;;;5.40;1.70;;;23.40;99.90;;;;;;5047531;28;20139;-68
2022/08/09 11:30:54;;;;;;;2.97;1.40;;;23.50;99.90;;;;;;5036881;28;20037;-68
2022/08/09 11:33:19;;;;;;;2.88;1.50;;;23.40;99.90;;;;;;5048790;28;20037;-69
2022/08/09 11:35:56;;;;;;;2.72;1.20;;;23.30;99.90;;;;;;5029905;28;20041;-68
2022/08/09 11:38:26;;;;;;;2.33;1.50;;;23.40;99.90;;;;;;5032191;28;20049;-68
2022/08/09 11:40:53;;;;;;;3.65;1.55;;;23.30;99.90;;;;;;5016305;28;20751;-69
2022/08/09 11:43:25;;;;;;;2.20;1.42;;;23.30;99.90;;;;;;5052070;28;20123;-69
2022/08/09 11:45:59;;;;;;;3.20;1.42;;;23.30;99.90;;;;;;5049030;28;20049;-68
2022/08/09 11:48:29;;;;;;;2.80;1.17;;;23.30;99.90;;;;;;5024894;28;20037;-69
2022/08/09 11:50:57;;;;;;;2.05;1.13;;;23.30;99.90;;;;;;5034734;28;20037;-68
2022/08/09 11:53:31;;;;;;;4.18;1.40;;;23.30;99.90;;;;;;5055547;28;20040;-69
2022/08/09 11:56:25;;;;;;;3.10;1.42;;;23.30;99.90;;;;;;5052209;28;20040;-69
2022/08/09 11:58:59;;;;;;;2.85;1.30;;;23.30;99.90;;;;;;5041123;28;20043;-69
2022/08/09 12:01:33;;;;;;;2.55;1.40;;;23.40;99.90;;;;;;5054555;28;20183;-68
2022/08/09 12:04:03;;;;;;;3.10;1.45;;;23.30;99.90;;;;;;5042686;28;20045;-68
2022/08/09 12:06:29;;;;;;;3.05;1.38;;;23.40;99.90;;;;;;5044779;28;20289;-69
2022/08/09 12:08:55;;;;;;;2.08;0.98;;;23.30;99.90;;;;;;5035402;28;20485;-68
2022/08/09 12:11:24;;;;;;;2.03;1.30;;;23.40;99.90;;;;;;5052797;28;20392;-72
2022/08/09 12:13:52;;;;;;;2.58;1.23;;;23.40;99.90;;;;;;5035360;28;20140;-72
2022/08/09 12:16:28;;;;;;;4.22;1.15;;;23.40;99.90;;;;;;5028918;28;20394;-68
2022/08/09 12:18:54;;;;;;;4.03;1.33;;;23.30;99.90;;;;;;5030893;28;20106;-69
2022/08/09 12:21:28;;;;;;;2.72;1.20;;;23.30;99.90;;;;;;5033172;28;20043;-68
2022/08/09 12:23:55;;;;;;;3.92;1.17;;;23.20;99.90;;;;;;5038885;28;20059;-68
2022/08/09 12:26:22;;;;;;;2.03;1.23;;;23.30;99.90;;;;;;5033873;28;20036;-70
2022/08/09 12:28:49;;;;;;;1.95;1.13;;;23.30;99.90;;;;;;5034439;28;20037;-69
2022/08/09 12:31:26;;;;;;;2.17;1.05;;;23.30;99.90;;;;;;5020940;28;20033;-69
2022/08/09 12:33:54;;;;;;;2.10;1.05;;;23.30;99.90;;;;;;5030770;28;20038;-69
2022/08/09 12:36:21;;;;;;;1.73;0.90;;;23.30;99.90;;;;;;5033782;28;20036;-69
2022/08/09 12:38:48;;;;;;;1.30;0.95;;;23.30;99.90;;;;;;5032124;28;20044;-69
2022/08/09 12:41:14;;;;;;;1.80;1.00;;;23.40;99.90;;;;;;5039177;28;20029;-69
2022/08/09 12:43:40;;;;;;;1.92;1.00;;;23.40;99.90;;;;;;5022499;28;20040;-69
2022/08/09 12:46:06;;;;;;;2.33;1.00;;;23.40;99.90;;;;;;5031863;28;20509;-69
2022/08/09 12:48:32;;;;;;;1.88;1.05;;;23.30;99.90;;;;;;5032243;28;20117;-69
2022/08/09 12:50:59;;;;;;;1.08;0.85;;;23.30;99.90;;;;;;5036584;28;20042;-69